sensor_id;sensor_type;location;lat;lon;timestamp;temperature;humidity
60469;DHT22;46316;47.582;10.238;2022-08-21T00:01:22;14.80;91.30
60469;DHT22;46316;47.582;10.238;2022-08-21T00:03:49;14.70;91.30
60469;DHT22;46316;47.582;10.238;2022-08-21T00:06:15;14.70;91.40
60469;DHT22;46316;47.582;10.238;2022-08-21T00:08:41;14.70;91.40
60469;DHT22;46316;47.582;10.238;2022-08-21T00:11:07;14.70;91.20
60469;DHT22;46316;47.582;10.238;2022-08-21T00:13:33;14.70;91.30
60469;DHT22;46316;47.582;10.238;2022-08-21T00:15:59;14.60;91.40
60469;DHT22;46316;47.582;10.238;2022-08-21T00:18:25;14.60;91.40
60469;DHT22;46316;47.582;10.238;2022-08-21T00:20:51;14.60;91.20
60469;DHT22;46316;47.582;10.238;2022-08-21T00:23:17;14.50;91.00
60469;DHT22;46316;47.582;10.238;2022-08-21T00:25:44;14.50;91.20
60469;DHT22;46316;47.582;10.238;2022-08-21T00:28:10;14.50;91.20
60469;DHT22;46316;47.582;10.238;2022-08-21T00:30:36;14.50;91.30
60469;DHT22;46316;47.582;10.238;2022-08-21T00:33:03;14.50;91.20
60469;DHT22;46316;47.582;10.238;2022-08-21T00:35:32;14.50;91.20
60469;DHT22;46316;47.582;10.238;2022-08-21T00:37:58;14.50;91.00
60469;DHT22;46316;47.582;10.238;2022-08-21T00:40:48;14.50;91.20
60469;DHT22;46316;47.582;10.238;2022-08-21T00:43:15;14.40;91.20
60469;DHT22;46316;47.582;10.238;2022-08-21T00:45:41;14.40;91.30
60469;DHT22;46316;47.582;10.238;2022-08-21T00:48:07;14.40;91.40
60469;DHT22;46316;47.582;10.238;2022-08-21T00:50:38;14.40;91.60
60469;DHT22;46316;47.582;10.238;2022-08-21T00:55:37;14.30;91.90
60469;DHT22;46316;47.582;10.238;2022-08-21T00:58:05;14.20;91.70
60469;DHT22;46316;47.582;10.238;2022-08-21T01:00:36;14.20;91.90
60469;DHT22;46316;47.582;10.238;2022-08-21T01:03:11;14.10;92.00
60469;DHT22;46316;47.582;10.238;2022-08-21T01:05:38;14.00;91.90
60469;DHT22;46316;47.582;10.238;2022-08-21T01:08:04;14.00;92.10
60469;DHT22;46316;47.582;10.238;2022-08-21T01:10:31;14.00;92.20
60469;DHT22;46316;47.582;10.238;2022-08-21T01:12:57;14.00;92.30
60469;DHT22;46316;47.582;10.238;2022-08-21T01:15:30;14.00;92.40
60469;DHT22;46316;47.582;10.238;2022-08-21T01:17:57;14.00;92.30
60469;DHT22;46316;47.582;10.238;2022-08-21T01:20:23;14.00;92.20
60469;DHT22;46316;47.582;10.238;2022-08-21T01:22:49;14.00;92.20
60469;DHT22;46316;47.582;10.238;2022-08-21T01:25:16;14.00;92.30
60469;DHT22;46316;47.582;10.238;2022-08-21T01:27:42;14.00;92.30
60469;DHT22;46316;47.582;10.238;2022-08-21T01:30:22;13.90;92.20
60469;DHT22;46316;47.582;10.238;2022-08-21T01:32:48;14.00;92.30
60469;DHT22;46316;47.582;10.238;2022-08-21T01:35:15;13.90;92.30
60469;DHT22;46316;47.582;10.238;2022-08-21T01:37:41;13.90;92.30
60469;DHT22;46316;47.582;10.238;2022-08-21T01:40:08;13.90;92.40
60469;DHT22;46316;47.582;10.238;2022-08-21T01:42:36;13.90;92.50
60469;DHT22;46316;47.582;10.238;2022-08-21T01:45:02;13.90;92.60
60469;DHT22;46316;47.582;10.238;2022-08-21T01:47:28;13.90;92.60
60469;DHT22;46316;47.582;10.238;2022-08-21T01:49:54;14.00;92.50
60469;DHT22;46316;47.582;10.238;2022-08-21T01:52:20;13.90;92.40
60469;DHT22;46316;47.582;10.238;2022-08-21T01:54:46;13.90;92.40
60469;DHT22;46316;47.582;10.238;2022-08-21T01:57:12;13.90;92.30
60469;DHT22;46316;47.582;10.238;2022-08-21T01:59:38;13.90;92.40
60469;DHT22;46316;47.582;10.238;2022-08-21T02:02:04;13.90;92.40
60469;DHT22;46316;47.582;10.238;2022-08-21T02:04:31;13.90;92.40
60469;DHT22;46316;47.582;10.238;2022-08-21T02:06:56;13.90;92.50
60469;DHT22;46316;47.582;10.238;2022-08-21T02:09:22;13.90;92.50
60469;DHT22;46316;47.582;10.238;2022-08-21T02:11:48;13.90;92.40
60469;DHT22;46316;47.582;10.238;2022-08-21T02:14:15;13.80;92.50
60469;DHT22;46316;47.582;10.238;2022-08-21T02:16:43;13.80;92.40
60469;DHT22;46316;47.582;10.238;2022-08-21T02:19:10;13.70;92.30
60469;DHT22;46316;47.582;10.238;2022-08-21T02:21:36;13.70;92.30
60469;DHT22;46316;47.582;10.238;2022-08-21T02:24:02;13.60;92.30
60469;DHT22;46316;47.582;10.238;2022-08-21T02:26:28;13.50;92.20
60469;DHT22;46316;47.582;10.238;2022-08-21T02:28:53;13.50;92.40
60469;DHT22;46316;47.582;10.238;2022-08-21T02:31:19;13.50;92.30
60469;DHT22;46316;47.582;10.238;2022-08-21T02:33:45;13.40;92.40
60469;DHT22;46316;47.582;10.238;2022-08-21T02:36:11;13.40;92.40
60469;DHT22;46316;47.582;10.238;2022-08-21T02:38:38;13.40;92.60
60469;DHT22;46316;47.582;10.238;2022-08-21T02:41:07;13.40;92.60
60469;DHT22;46316;47.582;10.238;2022-08-21T02:43:34;13.40;92.60
60469;DHT22;46316;47.582;10.238;2022-08-21T02:46:00;13.40;92.40
60469;DHT22;46316;47.582;10.238;2022-08-21T02:48:28;13.40;92.60
60469;DHT22;46316;47.582;10.238;2022-08-21T02:51:04;13.40;92.60
60469;DHT22;46316;47.582;10.238;2022-08-21T02:53:30;13.40;92.70
60469;DHT22;46316;47.582;10.238;2022-08-21T02:55:58;13.40;92.60
60469;DHT22;46316;47.582;10.238;2022-08-21T02:58:34;13.40;92.70
60469;DHT22;46316;47.582;10.238;2022-08-21T03:01:00;13.40;92.50
60469;DHT22;46316;47.582;10.238;2022-08-21T03:03:27;13.30;92.80
60469;DHT22;46316;47.582;10.238;2022-08-21T03:05:54;13.40;92.90
60469;DHT22;46316;47.582;10.238;2022-08-21T03:08:21;13.40;93.00
60469;DHT22;46316;47.582;10.238;2022-08-21T03:10:49;13.40;93.00
60469;DHT22;46316;47.582;10.238;2022-08-21T03:13:16;13.40;93.00
60469;DHT22;46316;47.582;10.238;2022-08-21T03:15:43;13.30;93.00
60469;DHT22;46316;47.582;10.238;2022-08-21T03:18:10;13.40;93.00
60469;DHT22;46316;47.582;10.238;2022-08-21T03:20:37;13.40;93.10
60469;DHT22;46316;47.582;10.238;2022-08-21T03:23:04;13.40;93.10
60469;DHT22;46316;47.582;10.238;2022-08-21T03:25:31;13.40;93.10
60469;DHT22;46316;47.582;10.238;2022-08-21T03:27:58;13.30;93.00
60469;DHT22;46316;47.582;10.238;2022-08-21T03:30:24;13.30;92.90
60469;DHT22;46316;47.582;10.238;2022-08-21T03:32:50;13.30;92.90
60469;DHT22;46316;47.582;10.238;2022-08-21T03:35:17;13.20;92.90
60469;DHT22;46316;47.582;10.238;2022-08-21T03:37:43;13.20;92.90
60469;DHT22;46316;47.582;10.238;2022-08-21T03:40:10;13.20;93.00
60469;DHT22;46316;47.582;10.238;2022-08-21T03:42:36;13.20;93.00
60469;DHT22;46316;47.582;10.238;2022-08-21T03:45:03;13.20;92.90
60469;DHT22;46316;47.582;10.238;2022-08-21T03:47:29;13.20;92.90
60469;DHT22;46316;47.582;10.238;2022-08-21T03:49:55;13.20;92.80
60469;DHT22;46316;47.582;10.238;2022-08-21T03:52:21;13.20;92.50
60469;DHT22;46316;47.582;10.238;2022-08-21T03:54:46;13.20;92.20
60469;DHT22;46316;47.582;10.238;2022-08-21T03:57:13;13.20;92.30
60469;DHT22;46316;47.582;10.238;2022-08-21T03:59:38;13.10;92.10
60469;DHT22;46316;47.582;10.238;2022-08-21T04:02:06;13.00;92.10
60469;DHT22;46316;47.582;10.238;2022-08-21T04:04:32;13.00;92.10
60469;DHT22;46316;47.582;10.238;2022-08-21T04:06:59;12.90;92.30
60469;DHT22;46316;47.582;10.238;2022-08-21T04:09:25;12.90;92.30
60469;DHT22;46316;47.582;10.238;2022-08-21T04:11:51;12.90;92.40
60469;DHT22;46316;47.582;10.238;2022-08-21T04:14:19;12.90;92.40
60469;DHT22;46316;47.582;10.238;2022-08-21T04:16:44;12.90;92.30
60469;DHT22;46316;47.582;10.238;2022-08-21T04:19:11;13.00;92.40
60469;DHT22;46316;47.582;10.238;2022-08-21T04:21:40;13.00;92.30
60469;DHT22;46316;47.582;10.238;2022-08-21T04:24:07;13.10;92.30
60469;DHT22;46316;47.582;10.238;2022-08-21T04:26:37;13.00;92.40
60469;DHT22;46316;47.582;10.238;2022-08-21T04:29:04;13.10;92.20
60469;DHT22;46316;47.582;10.238;2022-08-21T04:31:32;13.00;92.10
60469;DHT22;46316;47.582;10.238;2022-08-21T04:33:58;13.00;92.00
60469;DHT22;46316;47.582;10.238;2022-08-21T04:36:24;13.00;92.00
60469;DHT22;46316;47.582;10.238;2022-08-21T04:38:50;13.00;91.90
60469;DHT22;46316;47.582;10.238;2022-08-21T04:41:15;13.00;92.30
60469;DHT22;46316;47.582;10.238;2022-08-21T04:43:41;13.10;92.40
60469;DHT22;46316;47.582;10.238;2022-08-21T04:46:06;13.20;92.60
60469;DHT22;46316;47.582;10.238;2022-08-21T04:48:32;13.30;92.60
60469;DHT22;46316;47.582;10.238;2022-08-21T04:56:25;13.30;92.00
60469;DHT22;46316;47.582;10.238;2022-08-21T04:58:53;13.30;91.80
60469;DHT22;46316;47.582;10.238;2022-08-21T05:01:22;13.50;92.00
60469;DHT22;46316;47.582;10.238;2022-08-21T05:03:52;14.20;91.50
60469;DHT22;46316;47.582;10.238;2022-08-21T05:06:19;15.20;87.80
60469;DHT22;46316;47.582;10.238;2022-08-21T05:08:47;16.40;83.80
60469;DHT22;46316;47.582;10.238;2022-08-21T05:11:14;17.40;80.10
60469;DHT22;46316;47.582;10.238;2022-08-21T05:13:40;18.50;76.40
60469;DHT22;46316;47.582;10.238;2022-08-21T05:16:08;19.40;72.40
60469;DHT22;46316;47.582;10.238;2022-08-21T05:18:34;20.30;69.20
60469;DHT22;46316;47.582;10.238;2022-08-21T05:21:00;21.20;67.40
60469;DHT22;46316;47.582;10.238;2022-08-21T05:23:25;21.70;64.80
60469;DHT22;46316;47.582;10.238;2022-08-21T05:25:52;22.50;62.50
60469;DHT22;46316;47.582;10.238;2022-08-21T05:28:18;22.90;60.40
60469;DHT22;46316;47.582;10.238;2022-08-21T05:30:44;23.50;57.70
60469;DHT22;46316;47.582;10.238;2022-08-21T05:33:10;23.20;57.00
60469;DHT22;46316;47.582;10.238;2022-08-21T05:35:37;23.30;57.50
60469;DHT22;46316;47.582;10.238;2022-08-21T05:38:04;23.40;57.10
60469;DHT22;46316;47.582;10.238;2022-08-21T05:40:30;23.40;57.40
60469;DHT22;46316;47.582;10.238;2022-08-21T05:42:56;23.50;56.80
60469;DHT22;46316;47.582;10.238;2022-08-21T05:45:28;23.20;57.50
60469;DHT22;46316;47.582;10.238;2022-08-21T05:47:55;23.70;56.10
60469;DHT22;46316;47.582;10.238;2022-08-21T05:50:21;23.70;55.70
60469;DHT22;46316;47.582;10.238;2022-08-21T05:52:46;23.90;54.30
60469;DHT22;46316;47.582;10.238;2022-08-21T05:55:12;24.30;54.50
60469;DHT22;46316;47.582;10.238;2022-08-21T05:57:38;25.50;51.90
60469;DHT22;46316;47.582;10.238;2022-08-21T06:00:07;25.00;52.40
60469;DHT22;46316;47.582;10.238;2022-08-21T06:02:34;26.40;50.60
60469;DHT22;46316;47.582;10.238;2022-08-21T06:04:59;25.90;49.70
60469;DHT22;46316;47.582;10.238;2022-08-21T06:07:25;26.30;48.60
60469;DHT22;46316;47.582;10.238;2022-08-21T06:09:50;25.90;49.20
60469;DHT22;46316;47.582;10.238;2022-08-21T06:12:17;27.10;47.90
60469;DHT22;46316;47.582;10.238;2022-08-21T06:14:42;26.80;48.10
60469;DHT22;46316;47.582;10.238;2022-08-21T06:17:10;26.90;48.50
60469;DHT22;46316;47.582;10.238;2022-08-21T06:19:37;26.70;47.80
60469;DHT22;46316;47.582;10.238;2022-08-21T06:22:03;27.20;47.60
60469;DHT22;46316;47.582;10.238;2022-08-21T06:24:29;28.40;45.80
60469;DHT22;46316;47.582;10.238;2022-08-21T06:26:55;27.10;46.50
60469;DHT22;46316;47.582;10.238;2022-08-21T06:29:21;27.40;47.10
60469;DHT22;46316;47.582;10.238;2022-08-21T06:31:47;27.80;46.30
60469;DHT22;46316;47.582;10.238;2022-08-21T06:34:13;27.60;46.40
60469;DHT22;46316;47.582;10.238;2022-08-21T06:36:39;27.70;46.30
60469;DHT22;46316;47.582;10.238;2022-08-21T06:39:05;28.20;45.40
60469;DHT22;46316;47.582;10.238;2022-08-21T06:41:31;27.60;47.80
60469;DHT22;46316;47.582;10.238;2022-08-21T06:43:56;28.60;45.70
60469;DHT22;46316;47.582;10.238;2022-08-21T06:46:27;28.30;45.20
60469;DHT22;46316;47.582;10.238;2022-08-21T06:48:53;28.10;46.40
60469;DHT22;46316;47.582;10.238;2022-08-21T06:51:19;27.80;46.10
60469;DHT22;46316;47.582;10.238;2022-08-21T06:53:45;27.30;47.50
60469;DHT22;46316;47.582;10.238;2022-08-21T06:56:11;26.40;48.40
60469;DHT22;46316;47.582;10.238;2022-08-21T06:58:37;26.40;49.80
60469;DHT22;46316;47.582;10.238;2022-08-21T07:01:03;26.40;49.30
60469;DHT22;46316;47.582;10.238;2022-08-21T07:03:35;27.00;48.80
60469;DHT22;46316;47.582;10.238;2022-08-21T07:06:01;27.40;48.00
60469;DHT22;46316;47.582;10.238;2022-08-21T07:08:28;27.90;46.50
60469;DHT22;46316;47.582;10.238;2022-08-21T07:10:55;28.90;45.20
60469;DHT22;46316;47.582;10.238;2022-08-21T07:13:21;30.10;41.80
60469;DHT22;46316;47.582;10.238;2022-08-21T07:15:47;30.00;42.90
60469;DHT22;46316;47.582;10.238;2022-08-21T07:18:12;30.10;41.00
60469;DHT22;46316;47.582;10.238;2022-08-21T07:20:39;29.40;42.90
60469;DHT22;46316;47.582;10.238;2022-08-21T07:23:08;29.00;45.30
60469;DHT22;46316;47.582;10.238;2022-08-21T07:25:34;29.10;44.40
60469;DHT22;46316;47.582;10.238;2022-08-21T07:27:59;29.40;43.20
60469;DHT22;46316;47.582;10.238;2022-08-21T07:30:25;30.10;42.80
60469;DHT22;46316;47.582;10.238;2022-08-21T07:32:51;31.30;39.90
60469;DHT22;46316;47.582;10.238;2022-08-21T07:35:18;32.00;38.80
60469;DHT22;46316;47.582;10.238;2022-08-21T07:37:44;30.80;40.50
60469;DHT22;46316;47.582;10.238;2022-08-21T07:40:10;30.00;41.10
60469;DHT22;46316;47.582;10.238;2022-08-21T07:42:43;28.90;41.90
60469;DHT22;46316;47.582;10.238;2022-08-21T07:45:10;28.10;46.10
60469;DHT22;46316;47.582;10.238;2022-08-21T07:47:36;27.50;46.80
60469;DHT22;46316;47.582;10.238;2022-08-21T07:50:03;28.90;43.40
60469;DHT22;46316;47.582;10.238;2022-08-21T07:52:28;29.10;43.70
60469;DHT22;46316;47.582;10.238;2022-08-21T07:54:54;29.10;42.80
60469;DHT22;46316;47.582;10.238;2022-08-21T07:57:19;29.60;43.10
60469;DHT22;46316;47.582;10.238;2022-08-21T07:59:45;29.40;43.20
60469;DHT22;46316;47.582;10.238;2022-08-21T08:02:25;30.20;41.70
60469;DHT22;46316;47.582;10.238;2022-08-21T08:04:51;30.50;40.20
60469;DHT22;46316;47.582;10.238;2022-08-21T08:07:16;30.70;39.10
60469;DHT22;46316;47.582;10.238;2022-08-21T08:09:42;31.00;39.70
60469;DHT22;46316;47.582;10.238;2022-08-21T08:12:07;30.90;39.10
60469;DHT22;46316;47.582;10.238;2022-08-21T08:14:33;31.20;39.00
60469;DHT22;46316;47.582;10.238;2022-08-21T08:16:59;31.40;37.10
60469;DHT22;46316;47.582;10.238;2022-08-21T08:19:24;30.40;40.30
60469;DHT22;46316;47.582;10.238;2022-08-21T08:21:50;30.50;39.40
60469;DHT22;46316;47.582;10.238;2022-08-21T08:24:15;31.00;40.30
60469;DHT22;46316;47.582;10.238;2022-08-21T08:26:41;31.20;38.20
60469;DHT22;46316;47.582;10.238;2022-08-21T08:29:06;31.30;37.20
60469;DHT22;46316;47.582;10.238;2022-08-21T08:31:32;31.60;37.40
60469;DHT22;46316;47.582;10.238;2022-08-21T08:33:57;30.90;38.70
60469;DHT22;46316;47.582;10.238;2022-08-21T08:36:34;30.80;37.30
60469;DHT22;46316;47.582;10.238;2022-08-21T08:39:00;31.20;37.40
60469;DHT22;46316;47.582;10.238;2022-08-21T08:41:26;31.00;38.10
60469;DHT22;46316;47.582;10.238;2022-08-21T08:43:54;31.10;38.70
60469;DHT22;46316;47.582;10.238;2022-08-21T08:46:46;30.60;38.40
60469;DHT22;46316;47.582;10.238;2022-08-21T08:51:46;31.10;37.90
60469;DHT22;46316;47.582;10.238;2022-08-21T08:54:19;31.40;37.20
60469;DHT22;46316;47.582;10.238;2022-08-21T08:56:45;31.20;37.70
60469;DHT22;46316;47.582;10.238;2022-08-21T08:59:17;31.30;37.40
60469;DHT22;46316;47.582;10.238;2022-08-21T09:01:44;31.10;37.90
60469;DHT22;46316;47.582;10.238;2022-08-21T09:04:11;30.70;38.40
60469;DHT22;46316;47.582;10.238;2022-08-21T09:07:01;30.90;38.40
60469;DHT22;46316;47.582;10.238;2022-08-21T09:15:03;30.90;37.30
60469;DHT22;46316;47.582;10.238;2022-08-21T09:17:54;31.10;38.20
60469;DHT22;46316;47.582;10.238;2022-08-21T09:20:53;31.20;35.60
60469;DHT22;46316;47.582;10.238;2022-08-21T09:28:39;27.80;39.80
60469;DHT22;46316;47.582;10.238;2022-08-21T09:31:08;27.00;42.80
60469;DHT22;46316;47.582;10.238;2022-08-21T09:33:36;26.90;41.80
60469;DHT22;46316;47.582;10.238;2022-08-21T09:36:03;26.80;43.00
60469;DHT22;46316;47.582;10.238;2022-08-21T09:38:33;26.40;44.40
60469;DHT22;46316;47.582;10.238;2022-08-21T09:41:03;26.20;43.70
60469;DHT22;46316;47.582;10.238;2022-08-21T09:43:29;25.60;46.10
60469;DHT22;46316;47.582;10.238;2022-08-21T09:55:57;24.50;50.10
60469;DHT22;46316;47.582;10.238;2022-08-21T09:58:46;24.90;51.60
60469;DHT22;46316;47.582;10.238;2022-08-21T10:01:16;26.20;45.80
60469;DHT22;46316;47.582;10.238;2022-08-21T10:03:42;26.90;43.80
60469;DHT22;46316;47.582;10.238;2022-08-21T10:06:09;26.90;43.50
60469;DHT22;46316;47.582;10.238;2022-08-21T10:08:42;27.00;43.60
60469;DHT22;46316;47.582;10.238;2022-08-21T10:11:14;27.40;42.90
60469;DHT22;46316;47.582;10.238;2022-08-21T10:19:22;28.50;39.30
60469;DHT22;46316;47.582;10.238;2022-08-21T10:21:58;28.70;40.50
60469;DHT22;46316;47.582;10.238;2022-08-21T10:30:35;27.90;40.00
60469;DHT22;46316;47.582;10.238;2022-08-21T10:35:50;27.50;40.10
60469;DHT22;46316;47.582;10.238;2022-08-21T10:39:37;27.00;43.60
60469;DHT22;46316;47.582;10.238;2022-08-21T10:49:53;27.20;42.70
60469;DHT22;46316;47.582;10.238;2022-08-21T10:55:14;26.90;41.70
60469;DHT22;46316;47.582;10.238;2022-08-21T10:57:52;26.90;43.40
60469;DHT22;46316;47.582;10.238;2022-08-21T11:00:22;26.90;42.40
60469;DHT22;46316;47.582;10.238;2022-08-21T11:02:57;26.80;43.20
60469;DHT22;46316;47.582;10.238;2022-08-21T11:05:39;26.70;43.00
60469;DHT22;46316;47.582;10.238;2022-08-21T11:08:15;26.60;43.50
60469;DHT22;46316;47.582;10.238;2022-08-21T11:10:46;26.30;43.50
60469;DHT22;46316;47.582;10.238;2022-08-21T11:13:46;26.30;41.50
60469;DHT22;46316;47.582;10.238;2022-08-21T11:25:27;25.20;46.10
60469;DHT22;46316;47.582;10.238;2022-08-21T11:28:10;25.00;47.20
60469;DHT22;46316;47.582;10.238;2022-08-21T11:31:02;25.00;44.60
60469;DHT22;46316;47.582;10.238;2022-08-21T11:33:53;24.70;45.40
60469;DHT22;46316;47.582;10.238;2022-08-21T11:36:57;24.60;45.30
60469;DHT22;46316;47.582;10.238;2022-08-21T11:42:24;24.50;45.00
60469;DHT22;46316;47.582;10.238;2022-08-21T11:45:12;24.60;46.40
60469;DHT22;46316;47.582;10.238;2022-08-21T11:50:18;24.50;45.50
60469;DHT22;46316;47.582;10.238;2022-08-21T11:53:12;24.30;46.20
60469;DHT22;46316;47.582;10.238;2022-08-21T11:55:56;24.20;44.60
60469;DHT22;46316;47.582;10.238;2022-08-21T11:58:36;24.20;44.80
60469;DHT22;46316;47.582;10.238;2022-08-21T12:01:11;24.10;46.40
60469;DHT22;46316;47.582;10.238;2022-08-21T12:03:40;24.10;44.90
60469;DHT22;46316;47.582;10.238;2022-08-21T12:06:09;24.10;45.30
60469;DHT22;46316;47.582;10.238;2022-08-21T12:08:41;24.10;46.30
60469;DHT22;46316;47.582;10.238;2022-08-21T12:11:22;24.20;47.20
60469;DHT22;46316;47.582;10.238;2022-08-21T12:13:56;24.30;47.60
60469;DHT22;46316;47.582;10.238;2022-08-21T12:16:34;24.20;45.50
60469;DHT22;46316;47.582;10.238;2022-08-21T12:19:12;24.20;44.80
60469;DHT22;46316;47.582;10.238;2022-08-21T12:21:54;24.30;46.10
60469;DHT22;46316;47.582;10.238;2022-08-21T12:24:40;24.10;44.90
60469;DHT22;46316;47.582;10.238;2022-08-21T12:27:29;24.10;45.10
60469;DHT22;46316;47.582;10.238;2022-08-21T12:30:03;24.10;47.90
60469;DHT22;46316;47.582;10.238;2022-08-21T12:32:53;24.10;47.10
60469;DHT22;46316;47.582;10.238;2022-08-21T12:35:38;24.20;48.00
60469;DHT22;46316;47.582;10.238;2022-08-21T12:38:15;24.00;47.20
60469;DHT22;46316;47.582;10.238;2022-08-21T12:40:55;24.00;49.60
60469;DHT22;46316;47.582;10.238;2022-08-21T12:43:27;24.00;45.50
60469;DHT22;46316;47.582;10.238;2022-08-21T12:45:54;24.00;47.10
60469;DHT22;46316;47.582;10.238;2022-08-21T12:48:23;23.80;47.90
60469;DHT22;46316;47.582;10.238;2022-08-21T12:50:56;23.80;46.70
60469;DHT22;46316;47.582;10.238;2022-08-21T12:56:21;23.70;47.30
60469;DHT22;46316;47.582;10.238;2022-08-21T12:58:50;23.70;46.60
60469;DHT22;46316;47.582;10.238;2022-08-21T13:01:30;23.60;47.10
60469;DHT22;46316;47.582;10.238;2022-08-21T13:03:59;23.60;47.50
60469;DHT22;46316;47.582;10.238;2022-08-21T13:06:27;23.60;45.60
60469;DHT22;46316;47.582;10.238;2022-08-21T13:08:58;23.50;48.00
60469;DHT22;46316;47.582;10.238;2022-08-21T13:11:29;23.50;46.90
60469;DHT22;46316;47.582;10.238;2022-08-21T13:13:55;23.40;45.50
60469;DHT22;46316;47.582;10.238;2022-08-21T13:16:27;23.40;46.10
60469;DHT22;46316;47.582;10.238;2022-08-21T13:19:17;23.40;47.30
60469;DHT22;46316;47.582;10.238;2022-08-21T13:21:44;23.40;49.80
60469;DHT22;46316;47.582;10.238;2022-08-21T13:24:17;23.40;49.50
60469;DHT22;46316;47.582;10.238;2022-08-21T13:26:43;23.40;48.40
60469;DHT22;46316;47.582;10.238;2022-08-21T13:29:12;23.50;47.80
60469;DHT22;46316;47.582;10.238;2022-08-21T13:31:40;23.40;48.20
60469;DHT22;46316;47.582;10.238;2022-08-21T13:34:08;23.40;47.20
60469;DHT22;46316;47.582;10.238;2022-08-21T13:36:39;23.40;48.20
60469;DHT22;46316;47.582;10.238;2022-08-21T13:39:14;23.30;46.20
60469;DHT22;46316;47.582;10.238;2022-08-21T13:41:43;23.30;46.60
60469;DHT22;46316;47.582;10.238;2022-08-21T13:44:21;23.40;46.90
60469;DHT22;46316;47.582;10.238;2022-08-21T13:46:48;23.40;46.90
60469;DHT22;46316;47.582;10.238;2022-08-21T13:49:18;23.30;46.20
60469;DHT22;46316;47.582;10.238;2022-08-21T13:51:45;23.40;47.80
60469;DHT22;46316;47.582;10.238;2022-08-21T13:54:35;23.30;48.20
60469;DHT22;46316;47.582;10.238;2022-08-21T13:57:01;23.30;47.70
60469;DHT22;46316;47.582;10.238;2022-08-21T13:59:33;23.10;47.00
60469;DHT22;46316;47.582;10.238;2022-08-21T14:02:14;23.20;49.30
60469;DHT22;46316;47.582;10.238;2022-08-21T14:07:26;23.20;50.20
60469;DHT22;46316;47.582;10.238;2022-08-21T14:09:53;23.10;50.60
60469;DHT22;46316;47.582;10.238;2022-08-21T14:12:28;23.10;48.40
60469;DHT22;46316;47.582;10.238;2022-08-21T14:14:56;23.20;49.50
60469;DHT22;46316;47.582;10.238;2022-08-21T14:17:38;23.10;51.50
60469;DHT22;46316;47.582;10.238;2022-08-21T14:20:06;23.10;49.30
60469;DHT22;46316;47.582;10.238;2022-08-21T14:25:13;23.10;48.90
60469;DHT22;46316;47.582;10.238;2022-08-21T14:30:20;23.10;48.60
60469;DHT22;46316;47.582;10.238;2022-08-21T14:32:46;23.10;48.50
60469;DHT22;46316;47.582;10.238;2022-08-21T14:35:13;23.00;48.20
60469;DHT22;46316;47.582;10.238;2022-08-21T14:37:42;23.10;48.60
60469;DHT22;46316;47.582;10.238;2022-08-21T14:40:09;23.00;50.70
60469;DHT22;46316;47.582;10.238;2022-08-21T14:42:35;22.90;50.30
60469;DHT22;46316;47.582;10.238;2022-08-21T14:45:08;22.80;49.90
60469;DHT22;46316;47.582;10.238;2022-08-21T14:47:36;22.70;49.90
60469;DHT22;46316;47.582;10.238;2022-08-21T14:50:03;22.70;50.40
60469;DHT22;46316;47.582;10.238;2022-08-21T14:52:28;22.70;50.40
60469;DHT22;46316;47.582;10.238;2022-08-21T14:54:54;22.70;49.90
60469;DHT22;46316;47.582;10.238;2022-08-21T14:57:19;22.70;50.00
60469;DHT22;46316;47.582;10.238;2022-08-21T14:59:45;22.70;49.80
60469;DHT22;46316;47.582;10.238;2022-08-21T15:02:11;22.70;50.90
60469;DHT22;46316;47.582;10.238;2022-08-21T15:04:36;22.60;51.40
60469;DHT22;46316;47.582;10.238;2022-08-21T15:07:02;22.60;52.20
60469;DHT22;46316;47.582;10.238;2022-08-21T15:09:28;22.50;51.60
60469;DHT22;46316;47.582;10.238;2022-08-21T15:11:56;22.40;52.30
60469;DHT22;46316;47.582;10.238;2022-08-21T15:14:29;22.40;51.50
60469;DHT22;46316;47.582;10.238;2022-08-21T15:16:56;22.40;51.40
60469;DHT22;46316;47.582;10.238;2022-08-21T15:19:22;22.30;51.30
60469;DHT22;46316;47.582;10.238;2022-08-21T15:21:47;22.20;52.50
60469;DHT22;46316;47.582;10.238;2022-08-21T15:24:13;22.10;54.00
60469;DHT22;46316;47.582;10.238;2022-08-21T15:26:38;22.10;54.50
60469;DHT22;46316;47.582;10.238;2022-08-21T15:29:06;22.10;53.40
60469;DHT22;46316;47.582;10.238;2022-08-21T15:31:32;22.10;52.60
60469;DHT22;46316;47.582;10.238;2022-08-21T15:33:57;22.10;51.40
60469;DHT22;46316;47.582;10.238;2022-08-21T15:36:23;22.00;52.40
60469;DHT22;46316;47.582;10.238;2022-08-21T15:38:48;22.00;53.30
60469;DHT22;46316;47.582;10.238;2022-08-21T15:41:14;22.00;54.90
60469;DHT22;46316;47.582;10.238;2022-08-21T15:43:49;22.00;55.20
60469;DHT22;46316;47.582;10.238;2022-08-21T15:46:17;21.90;54.70
60469;DHT22;46316;47.582;10.238;2022-08-21T15:48:43;21.90;55.20
60469;DHT22;46316;47.582;10.238;2022-08-21T15:51:11;21.70;53.50
60469;DHT22;46316;47.582;10.238;2022-08-21T15:53:37;21.70;55.40
60469;DHT22;46316;47.582;10.238;2022-08-21T15:56:05;21.60;56.50
60469;DHT22;46316;47.582;10.238;2022-08-21T15:58:31;21.60;56.30
60469;DHT22;46316;47.582;10.238;2022-08-21T16:00:59;21.70;55.30
60469;DHT22;46316;47.582;10.238;2022-08-21T16:03:25;21.70;56.40
60469;DHT22;46316;47.582;10.238;2022-08-21T16:05:51;21.70;55.10
60469;DHT22;46316;47.582;10.238;2022-08-21T16:08:19;21.80;54.70
60469;DHT22;46316;47.582;10.238;2022-08-21T16:10:45;21.80;53.70
60469;DHT22;46316;47.582;10.238;2022-08-21T16:13:29;21.90;54.90
60469;DHT22;46316;47.582;10.238;2022-08-21T16:15:55;21.80;54.50
60469;DHT22;46316;47.582;10.238;2022-08-21T16:18:21;21.70;54.40
60469;DHT22;46316;47.582;10.238;2022-08-21T16:20:47;21.70;55.80
60469;DHT22;46316;47.582;10.238;2022-08-21T16:23:14;21.70;54.50
60469;DHT22;46316;47.582;10.238;2022-08-21T16:25:40;21.60;54.50
60469;DHT22;46316;47.582;10.238;2022-08-21T16:28:07;21.50;55.10
60469;DHT22;46316;47.582;10.238;2022-08-21T16:30:34;21.30;55.80
60469;DHT22;46316;47.582;10.238;2022-08-21T16:33:01;21.30;55.20
60469;DHT22;46316;47.582;10.238;2022-08-21T16:35:27;21.20;55.90
60469;DHT22;46316;47.582;10.238;2022-08-21T16:37:53;21.00;56.10
60469;DHT22;46316;47.582;10.238;2022-08-21T16:40:20;20.90;57.10
60469;DHT22;46316;47.582;10.238;2022-08-21T16:42:47;20.80;57.30
60469;DHT22;46316;47.582;10.238;2022-08-21T16:45:15;20.70;57.40
60469;DHT22;46316;47.582;10.238;2022-08-21T16:47:41;20.60;58.10
60469;DHT22;46316;47.582;10.238;2022-08-21T16:50:14;20.50;57.90